Time;durP1;ratioP1;P1;durP2;ratioP2;P2;SDS_P1;SDS_P2;PMS_P1;PMS_P2;Temp;Humidity;BMP_temperature;BMP_pressure;BME280_temperature;BME280_humidity;BME280_pressure;Samples;Min_cycle;Max_cycle;Signal;HPM_P1;HPM_P2
2021/12/26 00:00:27;;;;;;;4.35;1.58;;;-4.40;75.20;;;;;;5016638;28;20518;-63
2021/12/26 00:02:53;;;;;;;2.80;1.77;;;-4.30;74.70;;;;;;5026371;28;20568;-64
2021/12/26 00:05:21;;;;;;;4.70;2.00;;;-4.30;74.70;;;;;;5027806;28;20399;-64
2021/12/26 00:07:49;;;;;;;3.72;1.35;;;-4.40;75.60;;;;;;5026908;28;20072;-63
2021/12/26 00:10:17;;;;;;;4.03;1.88;;;-4.50;76.10;;;;;;5026171;28;20057;-64
2021/12/26 00:12:44;;;;;;;7.90;1.63;;;-4.50;76.40;;;;;;5023494;28;20504;-64
2021/12/26 00:15:11;;;;;;;3.13;1.42;;;-4.50;76.60;;;;;;5026292;28;20042;-64
2021/12/26 00:17:37;;;;;;;3.33;1.30;;;-4.50;76.90;;;;;;5024308;28;20049;-64
2021/12/26 00:20:06;;;;;;;6.47;1.90;;;-4.50;77.00;;;;;;5023678;28;20037;-64
2021/12/26 00:22:33;;;;;;;3.70;1.70;;;-4.50;77.30;;;;;;5025451;28;20474;-64
2021/12/26 00:25:00;;;;;;;2.15;1.40;;;-4.60;78.10;;;;;;5025123;28;20033;-64
2021/12/26 00:27:27;;;;;;;6.07;2.17;;;-4.70;79.10;;;;;;5027086;28;20484;-64
2021/12/26 00:29:59;;;;;;;4.38;1.80;;;-4.80;80.10;;;;;;5023627;28;20041;-64
2021/12/26 00:32:26;;;;;;;2.75;1.90;;;-4.90;80.90;;;;;;5026116;28;20049;-64
2021/12/26 00:34:54;;;;;;;4.82;1.80;;;-5.00;81.70;;;;;;5024394;28;20604;-64
2021/12/26 00:37:22;;;;;;;4.30;2.08;;;-5.10;81.90;;;;;;5025499;28;20049;-64
2021/12/26 00:39:48;;;;;;;4.75;2.15;;;-5.20;82.30;;;;;;5025218;28;20067;-64
2021/12/26 00:42:15;;;;;;;3.45;1.88;;;-5.30;83.10;;;;;;5022623;28;20049;-64
2021/12/26 00:44:41;;;;;;;4.57;1.65;;;-5.40;83.80;;;;;;5023701;28;20091;-64
2021/12/26 00:47:09;;;;;;;5.50;2.50;;;-5.40;83.90;;;;;;5023125;28;20411;-64
2021/12/26 00:49:36;;;;;;;4.47;1.90;;;-5.50;83.80;;;;;;5024536;28;20102;-64
2021/12/26 00:52:03;;;;;;;3.03;1.52;;;-5.50;84.10;;;;;;5022310;28;20041;-64
2021/12/26 00:54:30;;;;;;;7.15;1.77;;;-5.50;84.20;;;;;;5024720;28;20049;-64
2021/12/26 00:56:57;;;;;;;5.60;2.03;;;-5.60;84.00;;;;;;5024764;28;20041;-64
2021/12/26 00:59:25;;;;;;;5.18;1.98;;;-5.70;84.10;;;;;;5024563;28;20464;-64
2021/12/26 01:01:58;;;;;;;8.13;2.45;;;-5.80;84.60;;;;;;5021059;28;20060;-64
2021/12/26 01:04:24;;;;;;;4.18;2.03;;;-5.90;85.60;;;;;;5022254;28;20041;-63
2021/12/26 01:06:51;;;;;;;2.65;1.58;;;-5.90;85.90;;;;;;5022392;28;20042;-64
2021/12/26 01:09:25;;;;;;;3.45;1.92;;;-5.80;85.20;;;;;;5023615;28;20082;-64
2021/12/26 01:11:55;;;;;;;7.60;2.50;;;-5.70;84.50;;;;;;5040134;28;20523;-64
2021/12/26 01:14:31;;;;;;;5.28;2.33;;;-5.70;84.10;;;;;;5024146;28;20037;-63
2021/12/26 01:17:08;;;;;;;8.07;2.08;;;-5.70;84.40;;;;;;5023770;28;20488;-64
2021/12/26 01:19:43;;;;;;;5.25;1.98;;;-5.60;84.10;;;;;;5027108;28;20045;-64
2021/12/26 01:22:18;;;;;;;5.93;2.08;;;-5.60;83.60;;;;;;5025126;28;21071;-64
2021/12/26 01:24:46;;;;;;;3.97;1.55;;;-5.60;83.30;;;;;;5023190;28;20030;-64
2021/12/26 01:27:12;;;;;;;4.78;1.90;;;-5.60;82.90;;;;;;5025046;28;20081;-64
2021/12/26 01:29:39;;;;;;;3.88;1.98;;;-5.50;82.40;;;;;;5024543;28;20132;-64
2021/12/26 01:32:06;;;;;;;3.75;1.75;;;-5.40;81.90;;;;;;5026817;28;20517;-64
2021/12/26 01:34:33;;;;;;;8.05;1.73;;;-5.40;81.30;;;;;;5022450;28;20068;-64
2021/12/26 01:37:00;;;;;;;2.25;1.63;;;-5.30;81.00;;;;;;5026010;28;20045;-64
2021/12/26 01:39:26;;;;;;;5.40;1.52;;;-5.40;80.80;;;;;;5025777;28;20058;-64
2021/12/26 01:41:54;;;;;;;4.38;1.80;;;-5.40;81.20;;;;;;5025993;28;20056;-64
2021/12/26 01:44:21;;;;;;;2.55;1.70;;;-5.40;81.80;;;;;;5014928;28;20128;-64
2021/12/26 01:46:49;;;;;;;4.28;1.77;;;-5.40;81.60;;;;;;5018688;28;20634;-64
2021/12/26 01:49:22;;;;;;;5.85;2.15;;;-5.40;82.40;;;;;;5026108;28;20114;-64
2021/12/26 01:51:51;;;;;;;1.45;1.23;;;-5.30;81.70;;;;;;5008038;28;20045;-64
2021/12/26 01:54:38;;;;;;;2.47;1.80;;;-5.30;81.00;;;;;;5020318;28;20396;-64
2021/12/26 01:57:10;;;;;;;2.05;1.65;;;-5.20;80.20;;;;;;5022388;28;20447;-63
2021/12/26 01:59:38;;;;;;;2.67;1.23;;;-5.20;79.20;;;;;;5025370;28;20355;-64
2021/12/26 02:02:05;;;;;;;1.77;1.33;;;-5.20;79.20;;;;;;5024930;28;20152;-64
2021/12/26 02:04:32;;;;;;;3.60;1.83;;;-5.00;78.40;;;;;;5022861;28;20050;-64
2021/12/26 02:07:01;;;;;;;3.33;1.70;;;-5.00;78.60;;;;;;5013946;28;20049;-64
2021/12/26 02:09:28;;;;;;;2.88;1.95;;;-4.90;77.90;;;;;;5026582;28;20037;-64
2021/12/26 02:11:55;;;;;;;3.80;1.27;;;-4.90;77.50;;;;;;5027174;28;20041;-64
2021/12/26 02:14:21;;;;;;;4.55;1.30;;;-4.90;76.10;;;;;;5029336;28;20240;-64
2021/12/26 02:16:49;;;;;;;2.40;1.20;;;-4.70;75.20;;;;;;5028266;28;20045;-64
2021/12/26 02:19:16;;;;;;;2.50;1.40;;;-4.70;74.90;;;;;;5028639;28;20095;-64
2021/12/26 02:24:34;;;;;;;1.30;1.20;;;-4.60;72.90;;;;;;5019184;28;20111;-64
2021/12/26 02:29:45;;;;;;;2.83;1.35;;;-4.50;70.50;;;;;;5027826;28;20051;-64
2021/12/26 02:32:12;;;;;;;2.55;1.48;;;-4.50;69.60;;;;;;5029591;28;20379;-64
2021/12/26 02:34:38;;;;;;;2.45;1.40;;;-4.40;68.10;;;;;;5025526;28;20046;-64
2021/12/26 02:37:05;;;;;;;2.40;1.33;;;-4.50;68.90;;;;;;5028279;28;20380;-64
2021/12/26 02:39:33;;;;;;;2.33;1.23;;;-4.50;69.40;;;;;;5027864;28;20054;-64
2021/12/26 02:42:00;;;;;;;3.35;1.40;;;-4.50;69.60;;;;;;5029893;28;20053;-64
2021/12/26 02:44:27;;;;;;;2.88;1.50;;;-4.60;69.70;;;;;;5025931;28;20056;-64
2021/12/26 02:46:53;;;;;;;1.75;1.25;;;-4.60;69.90;;;;;;5028415;28;20111;-64
2021/12/26 02:49:24;;;;;;;3.88;1.15;;;-4.60;70.00;;;;;;5029178;28;20049;-64
2021/12/26 02:51:51;;;;;;;2.00;1.30;;;-4.60;70.30;;;;;;5028048;28;20045;-63
2021/12/26 02:54:18;;;;;;;5.03;2.03;;;-4.60;71.30;;;;;;5029070;28;20053;-64
2021/12/26 02:56:45;;;;;;;4.35;1.30;;;-4.70;71.70;;;;;;5025235;28;20431;-64
2021/12/26 02:59:11;;;;;;;7.93;1.60;;;-4.80;71.20;;;;;;5027731;28;20391;-64
2021/12/26 03:01:38;;;;;;;2.60;1.42;;;-4.80;70.30;;;;;;5028714;28;20049;-64
2021/12/26 03:04:05;;;;;;;1.45;1.35;;;-4.70;69.80;;;;;;5028792;28;20048;-64
2021/12/26 03:06:52;;;;;;;1.30;1.20;;;-4.80;70.50;;;;;;5027117;28;20646;-64
2021/12/26 03:09:19;;;;;;;1.70;1.00;;;-4.80;69.90;;;;;;5027606;28;20120;-64
2021/12/26 03:11:47;;;;;;;3.83;1.40;;;-4.80;71.20;;;;;;5028154;28;20394;-64
2021/12/26 03:14:13;;;;;;;2.00;1.13;;;-4.80;70.90;;;;;;5026203;28;20049;-64
2021/12/26 03:16:50;;;;;;;1.48;1.35;;;-4.80;71.40;;;;;;5017985;28;20480;-64
2021/12/26 03:19:17;;;;;;;4.85;1.10;;;-4.80;71.00;;;;;;5023718;28;20087;-63
2021/12/26 03:21:44;;;;;;;6.20;1.67;;;-4.90;71.30;;;;;;5027977;28;20116;-63
2021/12/26 03:24:10;;;;;;;1.35;1.02;;;-4.90;71.10;;;;;;5027128;28;20095;-64
2021/12/26 03:26:37;;;;;;;2.03;1.40;;;-4.90;71.00;;;;;;5024804;28;20811;-64
2021/12/26 03:29:03;;;;;;;4.75;1.85;;;-4.90;71.20;;;;;;5028757;28;20428;-64
2021/12/26 03:31:30;;;;;;;2.15;1.17;;;-4.90;71.80;;;;;;5026003;28;20538;-64
2021/12/26 03:33:57;;;;;;;4.18;1.10;;;-4.90;70.40;;;;;;5028759;28;20076;-64
2021/12/26 03:36:23;;;;;;;1.70;1.27;;;-4.90;70.70;;;;;;5026714;28;20091;-64
2021/12/26 03:38:49;;;;;;;4.10;1.40;;;-4.90;71.20;;;;;;5018914;28;20053;-64
2021/12/26 03:41:16;;;;;;;3.55;1.40;;;-5.00;71.60;;;;;;5026866;28;20089;-64
2021/12/26 03:43:43;;;;;;;6.43;1.88;;;-5.10;71.90;;;;;;5027244;28;20512;-64
2021/12/26 03:46:09;;;;;;;1.85;1.25;;;-5.10;72.30;;;;;;5028223;28;20128;-64
2021/12/26 03:48:36;;;;;;;1.48;1.05;;;-5.20;72.70;;;;;;5024353;28;20041;-64
2021/12/26 03:51:04;;;;;;;4.85;1.40;;;-5.20;72.40;;;;;;5028461;28;20053;-64
2021/12/26 03:53:31;;;;;;;1.85;1.27;;;-5.10;71.80;;;;;;5027168;28;20065;-64
2021/12/26 03:55:58;;;;;;;2.97;1.60;;;-5.10;71.70;;;;;;5026859;28;20609;-64
2021/12/26 03:58:24;;;;;;;2.45;1.48;;;-5.10;72.00;;;;;;5021540;28;20488;-64
2021/12/26 04:00:53;;;;;;;4.93;2.20;;;-5.20;72.20;;;;;;5025543;28;20037;-64
2021/12/26 04:03:21;;;;;;;1.90;1.50;;;-5.10;72.70;;;;;;5027827;28;20080;-63
2021/12/26 04:05:47;;;;;;;2.00;1.50;;;-5.20;73.10;;;;;;5026945;28;20080;-64
2021/12/26 04:08:15;;;;;;;5.53;1.77;;;-5.20;73.60;;;;;;5022721;28;20148;-63
2021/12/26 04:10:41;;;;;;;3.95;1.60;;;-5.30;74.20;;;;;;5040411;28;20046;-64
2021/12/26 04:13:08;;;;;;;1.60;1.33;;;-5.30;74.40;;;;;;5027661;28;20045;-64
2021/12/26 04:15:34;;;;;;;5.22;1.13;;;-5.30;74.70;;;;;;5027529;28;20361;-64
2021/12/26 04:18:01;;;;;;;2.72;1.77;;;-5.40;75.00;;;;;;5012137;28;20168;-63
2021/12/26 04:20:29;;;;;;;2.53;1.50;;;-5.40;75.20;;;;;;5025672;28;20042;-64
2021/12/26 04:22:57;;;;;;;2.45;1.50;;;-5.40;75.40;;;;;;5025147;28;20073;-64
2021/12/26 04:25:23;;;;;;;2.25;1.35;;;-5.40;75.30;;;;;;5026937;28;20132;-63
2021/12/26 04:27:50;;;;;;;1.85;1.38;;;-5.50;75.30;;;;;;5025223;28;20050;-64
2021/12/26 04:30:18;;;;;;;2.83;1.60;;;-5.50;75.70;;;;;;5025277;28;20511;-64
2021/12/26 04:32:45;;;;;;;2.47;1.75;;;-5.50;75.30;;;;;;5026996;28;20053;-64
2021/12/26 04:35:11;;;;;;;3.35;1.42;;;-5.50;75.30;;;;;;5026428;28;20496;-64
2021/12/26 04:37:38;;;;;;;5.25;1.63;;;-5.40;74.60;;;;;;5025924;28;20053;-64
2021/12/26 04:40:07;;;;;;;3.95;1.58;;;-5.40;74.90;;;;;;5022775;28;20070;-64
2021/12/26 04:42:36;;;;;;;1.80;0.60;;;-5.30;74.90;;;;;;5025815;28;20052;-64
2021/12/26 04:45:07;;;;;;;1.63;1.52;;;-5.20;74.70;;;;;;5025863;28;20838;-64
2021/12/26 04:47:34;;;;;;;2.90;1.45;;;-5.20;73.60;;;;;;5026710;28;20124;-64
2021/12/26 04:50:03;;;;;;;2.15;1.60;;;-5.10;73.00;;;;;;5022187;28;20530;-64
2021/12/26 04:52:36;;;;;;;2.50;1.77;;;-5.10;72.50;;;;;;5015935;28;20046;-64
2021/12/26 04:55:05;;;;;;;4.78;1.85;;;-5.10;72.40;;;;;;5026048;28;20045;-64
2021/12/26 04:57:32;;;;;;;1.70;1.10;;;-5.20;72.30;;;;;;5024325;28;20107;-64
2021/12/26 04:59:59;;;;;;;1.83;1.40;;;-5.10;72.40;;;;;;5026594;28;20042;-64
2021/12/26 05:02:28;;;;;;;1.90;1.70;;;-5.10;72.40;;;;;;5025694;28;20116;-64
2021/12/26 05:04:54;;;;;;;2.95;1.67;;;-5.10;72.20;;;;;;5026837;28;20121;-64
2021/12/26 05:07:21;;;;;;;3.80;1.80;;;-5.10;72.30;;;;;;5025744;28;20057;-64
2021/12/26 05:09:48;;;;;;;3.83;1.60;;;-5.20;73.00;;;;;;5026018;28;20064;-64
2021/12/26 05:12:14;;;;;;;3.55;1.75;;;-5.20;72.00;;;;;;4995948;28;20050;-63
2021/12/26 05:14:41;;;;;;;2.47;1.60;;;-5.20;72.50;;;;;;5025383;28;20079;-64
2021/12/26 05:17:08;;;;;;;2.05;1.02;;;-5.20;72.10;;;;;;5026091;28;20663;-63
2021/12/26 05:19:34;;;;;;;1.48;1.38;;;-5.20;72.00;;;;;;5025182;28;20049;-64
2021/12/26 05:22:01;;;;;;;2.05;1.27;;;-5.10;71.60;;;;;;5024262;28;20064;-64
2021/12/26 05:24:27;;;;;;;2.28;2.00;;;-5.10;70.80;;;;;;5025916;28;20099;-64
2021/12/26 05:26:53;;;;;;;3.85;1.80;;;-5.10;71.00;;;;;;5025669;28;20053;-63
2021/12/26 05:29:21;;;;;;;2.95;1.92;;;-5.10;71.00;;;;;;5026582;28;20034;-63
2021/12/26 05:31:49;;;;;;;3.80;2.20;;;-5.20;71.10;;;;;;5023853;28;20042;-64
2021/12/26 05:34:15;;;;;;;1.52;1.42;;;-5.30;71.40;;;;;;5026699;28;20077;-63
2021/12/26 05:36:42;;;;;;;6.35;1.70;;;-5.30;70.50;;;;;;5024757;28;20041;-64
2021/12/26 05:39:10;;;;;;;3.53;2.05;;;-5.20;70.00;;;;;;5026386;28;20847;-63
2021/12/26 05:41:36;;;;;;;4.53;1.98;;;-5.10;70.10;;;;;;5024359;28;20056;-63
2021/12/26 05:44:03;;;;;;;2.78;1.98;;;-5.10;69.30;;;;;;5023253;28;20107;-63
2021/12/26 05:46:29;;;;;;;3.85;1.80;;;-5.10;69.80;;;;;;5030140;28;20053;-64
2021/12/26 05:48:56;;;;;;;5.65;2.17;;;-5.00;69.00;;;;;;5028718;28;20060;-64
2021/12/26 05:51:22;;;;;;;6.15;2.33;;;-5.10;69.00;;;;;;5030308;28;20079;-64
2021/12/26 05:53:49;;;;;;;4.13;2.00;;;-5.10;69.20;;;;;;5027032;28;20413;-64
2021/12/26 05:56:15;;;;;;;4.05;2.08;;;-5.10;69.60;;;;;;5030461;28;20048;-63
2021/12/26 05:58:42;;;;;;;4.50;2.53;;;-5.10;69.20;;;;;;5028183;28;20095;-64
2021/12/26 06:01:08;;;;;;;4.13;2.40;;;-5.20;69.30;;;;;;5030356;28;20503;-63
2021/12/26 06:03:36;;;;;;;2.80;1.90;;;-5.20;69.40;;;;;;5026383;28;20049;-63
2021/12/26 06:06:04;;;;;;;6.03;2.03;;;-5.10;69.10;;;;;;5017221;28;20179;-64
2021/12/26 06:08:30;;;;;;;6.05;2.55;;;-5.20;69.30;;;;;;5028596;28;20278;-64
2021/12/26 06:10:57;;;;;;;3.38;1.98;;;-5.10;69.30;;;;;;5028329;28;20064;-64
2021/12/26 06:13:23;;;;;;;4.00;2.50;;;-5.20;69.50;;;;;;5030601;28;20053;-63
2021/12/26 06:15:50;;;;;;;5.28;2.72;;;-5.20;70.20;;;;;;5025770;28;20057;-64
2021/12/26 06:18:16;;;;;;;4.32;2.05;;;-5.30;71.40;;;;;;5029762;28;20049;-64
2021/12/26 06:20:43;;;;;;;2.45;1.65;;;-5.40;71.00;;;;;;5029289;28;20049;-63
2021/12/26 06:23:12;;;;;;;3.33;2.28;;;-5.40;70.60;;;;;;5029294;28;20029;-64
2021/12/26 06:25:39;;;;;;;2.03;1.50;;;-5.40;70.80;;;;;;5027863;28;20048;-63
2021/12/26 06:28:06;;;;;;;3.47;2.22;;;-5.40;70.70;;;;;;5027190;28;20120;-64
2021/12/26 06:30:33;;;;;;;2.08;1.80;;;-5.40;70.70;;;;;;5027874;28;20060;-63
2021/12/26 06:32:59;;;;;;;3.13;2.20;;;-5.40;70.90;;;;;;5027577;28;20081;-64
2021/12/26 06:35:26;;;;;;;6.00;2.80;;;-5.50;71.20;;;;;;5023387;28;20042;-63
2021/12/26 06:37:53;;;;;;;3.55;2.30;;;-5.50;70.50;;;;;;5038382;28;20049;-63
2021/12/26 06:40:19;;;;;;;6.25;2.08;;;-5.50;70.60;;;;;;5027281;28;20293;-64
2021/12/26 06:42:49;;;;;;;8.10;2.40;;;-5.50;70.30;;;;;;5029442;28;20125;-64
2021/12/26 06:45:18;;;;;;;5.03;2.65;;;-5.50;69.80;;;;;;5027265;28;20131;-63
2021/12/26 06:47:50;;;;;;;4.40;2.05;;;-5.40;69.40;;;;;;5020340;28;20052;-63
2021/12/26 06:50:18;;;;;;;4.93;2.63;;;-5.40;69.20;;;;;;5028486;28;20594;-64
2021/12/26 06:52:44;;;;;;;5.15;2.53;;;-5.40;69.10;;;;;;5027605;28;20049;-64
2021/12/26 06:55:11;;;;;;;4.22;2.15;;;-5.40;69.70;;;;;;5027498;28;20069;-63
2021/12/26 06:57:40;;;;;;;3.92;2.80;;;-5.40;69.10;;;;;;5020549;28;20512;-64
2021/12/26 07:00:13;;;;;;;3.55;1.92;;;-5.40;69.00;;;;;;5029282;28;20560;-64
2021/12/26 07:02:40;;;;;;;4.30;2.75;;;-5.40;68.80;;;;;;5026820;28;20116;-64
2021/12/26 07:05:06;;;;;;;3.83;2.75;;;-5.40;69.30;;;;;;5028360;28;20053;-64
2021/12/26 07:07:34;;;;;;;4.20;2.80;;;-5.50;69.40;;;;;;5024743;28;20049;-64
2021/12/26 07:10:02;;;;;;;3.08;2.58;;;-5.50;69.40;;;;;;5028937;28;20049;-64
2021/12/26 07:12:29;;;;;;;4.80;2.92;;;-5.40;68.70;;;;;;5028416;28;20049;-63
2021/12/26 07:14:55;;;;;;;4.40;2.42;;;-5.40;68.70;;;;;;5026537;28;20045;-64
2021/12/26 07:17:22;;;;;;;5.35;2.80;;;-5.40;68.40;;;;;;5027257;28;20123;-64
2021/12/26 07:19:48;;;;;;;5.68;3.00;;;-5.40;68.70;;;;;;5027293;28;20536;-64
2021/12/26 07:22:15;;;;;;;3.33;2.60;;;-5.40;68.40;;;;;;5028903;28;20124;-63
2021/12/26 07:24:43;;;;;;;5.90;2.45;;;-5.40;68.40;;;;;;5025874;28;20045;-64
2021/12/26 07:27:11;;;;;;;7.70;3.05;;;-5.40;68.10;;;;;;5023642;28;20042;-63
2021/12/26 07:29:38;;;;;;;5.75;3.03;;;-5.40;68.20;;;;;;5025728;28;20480;-63
2021/12/26 07:32:06;;;;;;;5.18;2.55;;;-5.40;68.80;;;;;;5028489;28;20129;-64
2021/12/26 07:34:33;;;;;;;6.63;3.00;;;-5.40;69.30;;;;;;5028620;28;20045;-64
2021/12/26 07:37:01;;;;;;;9.07;2.60;;;-5.50;69.80;;;;;;5026663;28;20053;-64
2021/12/26 07:39:27;;;;;;;2.42;2.20;;;-5.50;69.90;;;;;;5027756;28;20057;-64
2021/12/26 07:41:55;;;;;;;3.53;2.75;;;-5.50;70.50;;;;;;5026354;28;20045;-64
2021/12/26 07:44:21;;;;;;;4.55;2.38;;;-5.60;70.70;;;;;;5027763;28;20046;-63
2021/12/26 07:46:49;;;;;;;5.38;2.72;;;-5.60;71.10;;;;;;5027186;28;20479;-63
2021/12/26 07:49:17;;;;;;;3.42;2.40;;;-5.70;70.80;;;;;;5025063;28;20456;-63
2021/12/26 07:51:45;;;;;;;4.95;2.30;;;-5.60;69.80;;;;;;5026811;28;20084;-64
2021/12/26 07:54:14;;;;;;;3.00;2.42;;;-5.60;69.80;;;;;;5026108;28;20511;-63
2021/12/26 07:56:40;;;;;;;8.50;2.88;;;-5.60;69.90;;;;;;5027677;28;20136;-63
2021/12/26 07:59:07;;;;;;;5.13;2.53;;;-5.60;69.60;;;;;;5024073;28;20443;-64
2021/12/26 08:01:34;;;;;;;6.88;1.92;;;-5.60;70.30;;;;;;5026855;28;20061;-64
2021/12/26 08:04:02;;;;;;;6.00;2.95;;;-5.60;70.80;;;;;;5026681;28;20048;-64
2021/12/26 08:06:32;;;;;;;5.60;2.75;;;-5.60;70.30;;;;;;5026630;28;20516;-63
2021/12/26 08:08:58;;;;;;;4.15;2.40;;;-5.60;70.40;;;;;;5022086;28;20052;-63
2021/12/26 08:11:25;;;;;;;4.15;2.00;;;-5.60;70.70;;;;;;5024645;28;20053;-64
2021/12/26 08:13:51;;;;;;;4.13;2.20;;;-5.60;70.70;;;;;;5027206;28;20067;-64
2021/12/26 08:16:19;;;;;;;5.40;2.88;;;-5.60;70.90;;;;;;5023927;28;20049;-64
2021/12/26 08:18:46;;;;;;;3.22;2.13;;;-5.50;71.00;;;;;;5026336;28;20079;-64
2021/12/26 08:21:12;;;;;;;2.58;2.33;;;-5.50;70.90;;;;;;5026392;28;20120;-63
2021/12/26 08:23:38;;;;;;;4.53;1.90;;;-5.40;70.70;;;;;;5020196;28;20052;-64
2021/12/26 08:26:05;;;;;;;3.60;1.77;;;-5.40;71.10;;;;;;5014482;28;20068;-63
2021/12/26 08:28:31;;;;;;;2.72;2.30;;;-5.40;71.30;;;;;;5026221;28;20056;-64
2021/12/26 08:30:58;;;;;;;9.23;2.45;;;-5.40;71.10;;;;;;5025355;28;20073;-64
2021/12/26 08:33:25;;;;;;;5.90;2.45;;;-5.40;71.10;;;;;;5026128;28;20041;-63
2021/12/26 08:35:52;;;;;;;3.78;2.65;;;-5.30;71.10;;;;;;5026769;28;20056;-63
2021/12/26 08:38:22;;;;;;;4.50;2.10;;;-5.30;71.10;;;;;;5026047;28;20391;-64
2021/12/26 08:40:52;;;;;;;4.68;2.03;;;-5.30;71.50;;;;;;5020626;28;20057;-63
2021/12/26 08:43:19;;;;;;;;;;;-5.20;71.20;;;;;;5034588;28;20488;-63
2021/12/26 08:45:46;;;;;;;2.72;2.17;;;-5.20;70.70;;;;;;5026225;28;19947;-64
2021/12/26 08:48:13;;;;;;;4.55;2.20;;;-5.10;70.30;;;;;;5025823;28;20060;-63
2021/12/26 08:50:40;;;;;;;3.47;2.47;;;-5.00;69.60;;;;;;5023248;28;20037;-63
2021/12/26 08:53:08;;;;;;;2.92;2.13;;;-5.00;69.90;;;;;;5025640;28;20068;-63
2021/12/26 08:55:34;;;;;;;5.88;2.50;;;-4.90;69.30;;;;;;5025063;28;20450;-63
2021/12/26 08:58:01;;;;;;;2.40;2.20;;;-4.90;70.00;;;;;;5022935;28;20515;-63
2021/12/26 09:00:30;;;;;;;4.15;1.52;;;-4.80;69.50;;;;;;5026181;28;20041;-63
2021/12/26 09:02:56;;;;;;;5.43;2.20;;;-4.80;68.80;;;;;;5041124;28;20056;-63
2021/12/26 09:05:22;;;;;;;3.97;2.70;;;-4.70;68.20;;;;;;5027005;28;20033;-63
2021/12/26 09:07:49;;;;;;;4.72;2.33;;;-4.60;68.90;;;;;;5025364;28;20049;-64
2021/12/26 09:10:16;;;;;;;3.50;2.40;;;-4.50;67.90;;;;;;5026947;28;20048;-63
2021/12/26 09:12:46;;;;;;;5.13;2.40;;;-4.50;68.90;;;;;;5023718;28;20515;-63
2021/12/26 09:15:13;;;;;;;5.28;2.60;;;-4.50;68.30;;;;;;5026239;28;20064;-63
2021/12/26 09:17:41;;;;;;;1.77;1.00;;;-4.40;68.20;;;;;;5025790;28;20121;-64
2021/12/26 09:20:09;;;;;;;5.25;2.60;;;-4.30;67.40;;;;;;5025542;28;20049;-63
2021/12/26 09:22:37;;;;;;;2.20;1.92;;;-4.30;68.10;;;;;;5034057;28;20120;-64
2021/12/26 09:25:04;;;;;;;2.88;2.17;;;-4.30;66.90;;;;;;5024925;28;20146;-63
2021/12/26 09:27:31;;;;;;;6.10;1.40;;;-4.20;67.80;;;;;;5026155;28;20050;-64
2021/12/26 09:29:57;;;;;;;6.75;2.67;;;-4.20;67.40;;;;;;5024189;28;20045;-63
2021/12/26 09:32:23;;;;;;;4.18;1.73;;;-4.10;66.80;;;;;;5026906;28;20103;-63
2021/12/26 09:34:50;;;;;;;5.03;2.20;;;-4.10;66.50;;;;;;5024654;28;20514;-63
2021/12/26 09:37:18;;;;;;;4.22;2.60;;;-4.00;67.00;;;;;;5024670;28;20061;-63
2021/12/26 09:39:49;;;;;;;4.95;2.72;;;-4.00;67.40;;;;;;5025956;28;20056;-63
2021/12/26 09:42:16;;;;;;;4.15;2.80;;;-3.90;67.30;;;;;;4934670;28;20396;-63
2021/12/26 09:44:43;;;;;;;2.88;2.13;;;-3.80;66.90;;;;;;5024242;28;20403;-63
2021/12/26 09:47:10;;;;;;;4.53;2.10;;;-3.80;67.10;;;;;;5024230;28;20041;-64
2021/12/26 09:49:37;;;;;;;2.40;2.20;;;-3.70;66.40;;;;;;5024360;28;20061;-64
2021/12/26 09:52:05;;;;;;;3.90;2.63;;;-3.60;66.00;;;;;;5017376;28;20499;-63
2021/12/26 09:54:31;;;;;;;1.50;1.13;;;-3.60;66.00;;;;;;5021272;28;20045;-64
2021/12/26 09:56:58;;;;;;;6.38;2.25;;;-3.50;65.60;;;;;;5024383;28;20048;-64
2021/12/26 09:59:27;;;;;;;3.78;2.88;;;-3.40;64.60;;;;;;5022179;28;20671;-64
2021/12/26 10:02:05;;;;;;;6.03;2.58;;;-3.40;65.10;;;;;;5026499;28;20194;-63
2021/12/26 10:04:33;;;;;;;4.68;2.67;;;-3.30;65.40;;;;;;5020113;28;20041;-64
2021/12/26 10:07:06;;;;;;;3.88;2.08;;;-3.30;65.30;;;;;;5025198;28;20052;-64
2021/12/26 10:09:36;;;;;;;7.82;2.45;;;-3.20;64.10;;;;;;5022121;28;20057;-63
2021/12/26 10:12:06;;;;;;;2.10;1.95;;;-3.10;63.80;;;;;;5019245;28;20138;-64
2021/12/26 10:14:35;;;;;;;6.18;2.55;;;-3.00;62.60;;;;;;5026164;28;20064;-64
2021/12/26 10:17:10;;;;;;;2.25;2.05;;;-3.00;62.40;;;;;;5019816;28;20055;-63
2021/12/26 10:19:44;;;;;;;4.10;2.60;;;-2.90;61.60;;;;;;5021312;28;20496;-64
2021/12/26 10:22:13;;;;;;;2.72;1.58;;;-2.90;61.30;;;;;;5022442;28;20050;-64
2021/12/26 10:24:43;;;;;;;4.03;2.10;;;-2.80;60.30;;;;;;5024799;28;20135;-64
2021/12/26 10:27:17;;;;;;;3.63;2.65;;;-2.80;60.00;;;;;;5023872;28;20056;-63
2021/12/26 10:29:49;;;;;;;3.10;2.40;;;-2.70;59.10;;;;;;5024640;28;20143;-64
2021/12/26 10:32:37;;;;;;;1.48;0.85;;;-2.70;58.70;;;;;;5022724;28;20471;-64
2021/12/26 10:35:10;;;;;;;3.45;2.03;;;-2.60;59.40;;;;;;5025315;28;20938;-64
2021/12/26 10:37:46;;;;;;;4.40;2.10;;;-2.60;58.40;;;;;;5015503;28;20057;-64
2021/12/26 10:40:22;;;;;;;2.53;2.10;;;-2.50;58.90;;;;;;5027318;28;20057;-64
2021/12/26 10:43:00;;;;;;;3.85;2.38;;;-2.50;58.20;;;;;;5021213;28;20132;-64
2021/12/26 10:45:31;;;;;;;3.72;2.28;;;-2.40;59.90;;;;;;5020902;28;20400;-64
2021/12/26 10:48:00;;;;;;;2.03;1.73;;;-2.40;60.80;;;;;;5022971;28;20042;-64
2021/12/26 10:50:29;;;;;;;5.68;2.63;;;-2.40;58.20;;;;;;5029294;28;20072;-64
2021/12/26 10:53:04;;;;;;;1.98;1.65;;;-2.30;57.80;;;;;;5028066;28;20121;-64
2021/12/26 10:55:38;;;;;;;3.03;2.45;;;-2.40;57.80;;;;;;5019034;28;20037;-63
2021/12/26 10:58:07;;;;;;;3.72;2.45;;;-2.30;59.40;;;;;;5001785;28;20056;-64
2021/12/26 11:00:41;;;;;;;9.20;2.78;;;-2.30;58.60;;;;;;5027920;28;20119;-64
2021/12/26 11:03:11;;;;;;;1.70;1.15;;;-2.20;58.50;;;;;;5028741;28;20037;-64
2021/12/26 11:05:39;;;;;;;3.92;1.92;;;-2.20;58.60;;;;;;5028581;28;20104;-63
2021/12/26 11:08:14;;;;;;;9.32;2.45;;;-2.20;56.70;;;;;;5026499;28;20049;-64
2021/12/26 11:10:47;;;;;;;5.72;2.40;;;-2.20;56.10;;;;;;5028040;28;20681;-64
2021/12/26 11:13:21;;;;;;;2.85;2.00;;;-2.10;56.10;;;;;;5027662;28;20053;-63
2021/12/26 11:15:48;;;;;;;1.83;1.23;;;-2.00;57.50;;;;;;5027768;28;20059;-64
2021/12/26 11:18:17;;;;;;;5.60;2.33;;;-2.00;56.40;;;;;;5027594;28;20103;-64
2021/12/26 11:20:48;;;;;;;4.40;1.60;;;-2.00;54.90;;;;;;5024469;28;20053;-64
2021/12/26 11:23:18;;;;;;;2.58;2.10;;;-1.90;55.90;;;;;;5027465;28;20063;-64
2021/12/26 11:25:53;;;;;;;1.35;1.25;;;-1.90;56.40;;;;;;5025880;28;20041;-64
2021/12/26 11:28:26;;;;;;;3.15;2.63;;;-1.90;55.00;;;;;;5024175;28;20050;-64
2021/12/26 11:30:55;;;;;;;3.80;2.33;;;-1.80;56.10;;;;;;5025902;28;20060;-63
2021/12/26 11:33:22;;;;;;;2.17;1.80;;;-1.80;56.20;;;;;;5026469;28;20077;-64
2021/12/26 11:35:50;;;;;;;3.00;2.15;;;-1.80;55.00;;;;;;5027632;28;20041;-63
2021/12/26 11:38:19;;;;;;;4.15;2.42;;;-1.80;55.20;;;;;;5027494;28;20045;-64
2021/12/26 11:40:48;;;;;;;3.78;2.22;;;-1.80;56.00;;;;;;5024773;28;20164;-64
2021/12/26 11:43:55;;;;;;;2.03;1.15;;;-1.80;56.40;;;;;;5026590;28;20129;-63
2021/12/26 11:46:29;;;;;;;2.88;1.83;;;-1.70;56.70;;;;;;5016293;28;20050;-63
2021/12/26 11:49:15;;;;;;;3.03;2.03;;;-1.70;56.30;;;;;;5024188;28;20403;-63
2021/12/26 11:52:14;;;;;;;2.55;2.35;;;-1.70;57.10;;;;;;5024492;28;20038;-64
2021/12/26 11:55:02;;;;;;;4.05;2.42;;;-1.60;57.30;;;;;;5025581;28;20111;-64
2021/12/26 11:57:51;;;;;;;1.10;1.02;;;-1.60;56.60;;;;;;5023792;28;20120;-63
2021/12/26 12:00:41;;;;;;;4.82;2.35;;;-1.60;55.90;;;;;;5022918;28;20037;-63
2021/12/26 12:03:24;;;;;;;;;;;-1.50;57.20;;;;;;5027893;28;20105;-64
2021/12/26 12:05:58;;;;;;;1.83;0.95;;;-1.50;57.00;;;;;;5026020;28;19928;-64
2021/12/26 12:08:24;;;;;;;2.60;2.40;;;-1.50;57.40;;;;;;5026996;28;20121;-63
2021/12/26 12:10:54;;;;;;;4.07;2.40;;;-1.50;57.40;;;;;;5023321;28;20041;-63
2021/12/26 12:13:26;;;;;;;2.15;1.98;;;-1.40;57.90;;;;;;5025750;28;20041;-63
2021/12/26 12:15:56;;;;;;;4.65;2.33;;;-1.30;56.10;;;;;;5027273;28;20060;-64
2021/12/26 12:18:25;;;;;;;3.17;1.90;;;-1.30;56.90;;;;;;5025392;28;20038;-64
2021/12/26 12:21:15;;;;;;;4.68;1.45;;;-1.30;56.70;;;;;;5042872;28;20060;-63
2021/12/26 12:24:03;;;;;;;4.45;2.25;;;-1.30;56.20;;;;;;5026876;28;20065;-63
2021/12/26 12:27:00;;;;;;;1.25;1.05;;;-1.20;56.20;;;;;;5021016;28;20038;-64
2021/12/26 12:29:30;;;;;;;1.17;0.82;;;-1.20;56.10;;;;;;5017683;28;20600;-64
2021/12/26 12:32:08;;;;;;;1.27;1.08;;;-1.10;56.60;;;;;;5025512;28;20049;-63
2021/12/26 12:34:55;;;;;;;4.20;2.20;;;-1.10;54.60;;;;;;4989038;28;20439;-64
2021/12/26 12:37:39;;;;;;;2.47;1.95;;;-1.00;54.80;;;;;;4893668;28;20061;-64
2021/12/26 12:40:09;;;;;;;3.83;1.70;;;-1.00;54.20;;;;;;5016146;28;20092;-64
2021/12/26 12:42:37;;;;;;;3.50;1.92;;;-0.90;54.80;;;;;;5027211;28;20408;-64
2021/12/26 12:45:05;;;;;;;5.13;2.45;;;-0.90;54.50;;;;;;5026430;28;20124;-64
2021/12/26 12:47:32;;;;;;;3.95;2.20;;;-0.80;54.10;;;;;;5024287;28;20041;-64
2021/12/26 12:50:02;;;;;;;3.03;1.85;;;-0.80;53.10;;;;;;5025674;28;20044;-64
2021/12/26 12:52:46;;;;;;;6.43;2.42;;;-0.70;53.80;;;;;;5024334;28;20030;-64
2021/12/26 12:55:19;;;;;;;2.38;1.63;;;-0.70;54.10;;;;;;5024595;28;20064;-64
2021/12/26 12:57:49;;;;;;;4.82;2.55;;;-0.60;55.80;;;;;;5024475;28;20049;-64
2021/12/26 13:00:24;;;;;;;;;;;-0.60;55.40;;;;;;5024616;28;20103;-65
2021/12/26 13:02:54;;;;;;;2.58;1.80;;;-0.60;55.30;;;;;;5025808;28;20011;-64